createdAt,value
2018-02-04T00:02:23.979Z,0.00
2018-02-04T00:04:50.316Z,0.00
2018-02-04T00:07:16.548Z,0.00
2018-02-04T00:09:42.764Z,0.00
2018-02-04T00:12:08.984Z,0.10
2018-02-04T00:14:35.256Z,0.10
2018-02-04T00:17:01.530Z,0.10
2018-02-04T00:19:27.839Z,0.20
2018-02-04T00:21:54.815Z,0.20
2018-02-04T00:24:21.007Z,0.20
2018-02-04T00:26:48.044Z,0.20
2018-02-04T00:29:15.071Z,0.20
2018-02-04T00:31:41.343Z,0.20
2018-02-04T00:34:07.707Z,0.20
2018-02-04T00:36:33.908Z,0.20
2018-02-04T00:39:00.191Z,0.20
2018-02-04T00:41:26.510Z,0.20
2018-02-04T00:43:52.735Z,0.10
2018-02-04T00:46:18.955Z,0.20
2018-02-04T00:48:45.236Z,0.20
2018-02-04T00:51:12.311Z,0.20
2018-02-04T00:53:38.623Z,0.20
2018-02-04T00:56:04.856Z,0.20
2018-02-04T00:58:31.839Z,0.40
2018-02-04T01:00:58.091Z,0.40
2018-02-04T01:03:24.312Z,0.50
2018-02-04T01:05:50.567Z,0.60
2018-02-04T01:08:17.623Z,0.60
2018-02-04T01:10:44.712Z,0.60
2018-02-04T01:13:11.031Z,0.60
2018-02-04T01:15:37.288Z,0.50
2018-02-04T01:18:03.501Z,0.40
2018-02-04T01:20:29.766Z,0.30
2018-02-04T01:22:55.987Z,0.30
2018-02-04T01:25:22.256Z,0.30
2018-02-04T01:27:48.475Z,0.30
2018-02-04T01:30:15.496Z,0.30
2018-02-04T01:32:41.779Z,0.30
2018-02-04T01:35:08.043Z,0.20
2018-02-04T01:37:34.271Z,0.30
2018-02-04T01:40:00.532Z,0.40
2018-02-04T01:42:27.554Z,0.40
2018-02-04T01:44:53.843Z,0.40
2018-02-04T01:47:20.160Z,0.40
2018-02-04T01:49:46.415Z,0.50
2018-02-04T01:52:12.611Z,0.50
2018-02-04T01:54:39.931Z,0.50
2018-02-04T01:57:06.152Z,0.40
2018-02-04T01:59:32.427Z,0.40
2018-02-04T02:01:59.158Z,0.40
2018-02-04T02:04:26.275Z,0.30
2018-02-04T02:06:52.550Z,0.30
2018-02-04T02:09:18.827Z,0.20
2018-02-04T02:11:45.028Z,0.20
2018-02-04T02:14:11.295Z,0.10
2018-02-04T02:16:37.551Z,0.20
2018-02-04T02:19:03.894Z,0.20
2018-02-04T02:21:30.123Z,0.30
2018-02-04T02:23:56.323Z,0.30
2018-02-04T02:26:23.531Z,0.20
2018-02-04T02:28:49.773Z,0.20
2018-02-04T02:31:16.033Z,0.20
2018-02-04T02:33:42.973Z,0.20
2018-02-04T02:36:10.047Z,0.20
2018-02-04T02:38:36.285Z,0.20
2018-02-04T02:41:02.532Z,0.20
2018-02-04T02:43:28.727Z,0.10
2018-02-04T02:45:55.043Z,0.10
2018-02-04T02:48:22.051Z,0.20
2018-02-04T02:50:48.327Z,0.10
2018-02-04T02:53:15.292Z,0.20
2018-02-04T02:55:41.615Z,0.20
2018-02-04T02:58:07.844Z,0.20
2018-02-04T03:00:34.127Z,0.20
2018-02-04T03:03:00.429Z,0.10
2018-02-04T03:05:26.728Z,0.10
2018-02-04T03:07:53.019Z,0.10
2018-02-04T03:10:19.311Z,0.00
2018-02-04T03:12:45.608Z,0.00
2018-02-04T03:15:12.579Z,0.00
2018-02-04T03:17:38.807Z,0.00
2018-02-04T03:20:05.095Z,0.00
2018-02-04T03:22:31.404Z,0.10
2018-02-04T03:24:57.663Z,0.00
2018-02-04T03:27:24.696Z,0.10
2018-02-04T03:29:50.975Z,0.10
2018-02-04T03:32:17.183Z,0.20
2018-02-04T03:34:43.440Z,0.20
2018-02-04T03:37:09.641Z,0.20
2018-02-04T03:39:35.935Z,0.10
2018-02-04T03:42:02.161Z,0.20
2018-02-04T03:44:28.414Z,0.20
2018-02-04T03:46:55.348Z,0.10
2018-02-04T03:49:22.343Z,0.10
2018-02-04T03:51:48.567Z,0.10
2018-02-04T03:54:19.784Z,0.10
2018-02-04T03:56:45.991Z,0.00
2018-02-04T03:59:12.232Z,0.00
2018-02-04T04:01:39.283Z,0.10
2018-02-04T04:04:06.331Z,0.10
2018-02-04T04:06:33.335Z,0.10
2018-02-04T04:08:59.523Z,0.10
2018-02-04T04:11:25.783Z,0.00
2018-02-04T04:13:52.013Z,0.00
2018-02-04T04:16:18.277Z,0.00
2018-02-04T04:18:44.604Z,-0.10
2018-02-04T04:21:10.867Z,-0.10
2018-02-04T04:23:37.084Z,0.00
2018-02-04T04:26:04.075Z,0.10
2018-02-04T04:28:30.289Z,0.10
2018-02-04T04:30:56.512Z,-0.10
2018-02-04T04:33:22.767Z,0.00
2018-02-04T04:35:49.037Z,-0.10
2018-02-04T04:38:16.079Z,0.00
2018-02-04T04:40:43.039Z,0.00
2018-02-04T04:43:09.276Z,0.00
2018-02-04T04:45:35.554Z,0.00
2018-02-04T04:48:01.776Z,0.00
2018-02-04T04:50:28.019Z,0.00
2018-02-04T04:52:54.294Z,0.10
2018-02-04T04:55:20.622Z,0.10
2018-02-04T04:57:46.836Z,0.00
2018-02-04T05:00:13.840Z,0.00
2018-02-04T05:02:40.051Z,0.00
2018-02-04T05:05:06.283Z,0.00
2018-02-04T05:07:32.560Z,-0.10
2018-02-04T05:09:59.591Z,0.10
2018-02-04T05:12:25.807Z,0.10
2018-02-04T05:14:52.063Z,0.20
2018-02-04T05:17:19.060Z,0.20
2018-02-04T05:19:45.384Z,0.20
2018-02-04T05:22:12.398Z,0.30
2018-02-04T05:24:38.684Z,0.30
2018-02-04T05:27:04.964Z,0.30
2018-02-04T05:29:31.283Z,0.30
2018-02-04T05:31:58.355Z,0.20
2018-02-04T05:34:24.607Z,0.30
2018-02-04T05:36:50.935Z,0.10
2018-02-04T05:39:17.167Z,0.10
2018-02-04T05:41:43.443Z,0.10
2018-02-04T05:44:10.487Z,0.10
2018-02-04T05:46:37.484Z,0.10
2018-02-04T05:49:03.787Z,0.10
2018-02-04T05:51:30.036Z,0.00
2018-02-04T05:53:56.248Z,0.10
2018-02-04T05:56:22.524Z,0.10
2018-02-04T05:58:48.728Z,0.10
2018-02-04T06:01:15.005Z,0.20
2018-02-04T06:03:42.047Z,0.10
2018-02-04T06:06:09.049Z,0.20
2018-02-04T06:08:35.364Z,0.20
2018-02-04T06:11:01.711Z,0.20
2018-02-04T06:13:27.936Z,0.20
2018-02-04T06:15:54.188Z,0.20
2018-02-04T06:18:20.436Z,0.20
2018-02-04T06:20:46.804Z,0.10
2018-02-04T06:23:13.131Z,0.00
2018-02-04T06:25:39.401Z,0.00
2018-02-04T06:28:05.771Z,-0.10
2018-02-04T06:30:32.794Z,-0.20
2018-02-04T06:32:59.340Z,-0.20
2018-02-04T06:35:25.582Z,-0.30
2018-02-04T06:37:51.888Z,-0.40
2018-02-04T06:40:18.195Z,-0.40
2018-02-04T06:42:44.475Z,-0.50
2018-02-04T06:45:11.461Z,-0.50
2018-02-04T06:47:37.683Z,-0.60
2018-02-04T06:50:03.947Z,-0.60
2018-02-04T06:52:30.167Z,-0.60
2018-02-04T06:54:56.424Z,-0.50
2018-02-04T06:57:22.652Z,-0.50
2018-02-04T06:59:48.923Z,-0.60
2018-02-04T07:02:15.155Z,-0.50
2018-02-04T07:04:41.423Z,-0.50
2018-02-04T07:07:07.732Z,-0.60
2018-02-04T07:09:33.992Z,-0.60
2018-02-04T07:12:00.215Z,-0.60
2018-02-04T07:14:26.475Z,-0.60
2018-02-04T07:16:52.682Z,-0.70
2018-02-04T07:19:18.956Z,-0.70
2018-02-04T07:21:45.208Z,-0.70
2018-02-04T07:24:11.428Z,-0.70
2018-02-04T07:26:37.695Z,-0.70
2018-02-04T07:29:03.926Z,-0.70
2018-02-04T07:31:30.987Z,-0.60
2018-02-04T07:33:57.204Z,-0.60
2018-02-04T07:36:24.191Z,-0.50
2018-02-04T07:38:50.411Z,-0.50
2018-02-04T07:41:16.707Z,-0.50
2018-02-04T07:43:43.719Z,-0.40
2018-02-04T07:46:09.983Z,-0.50
2018-02-04T07:48:37.031Z,-0.50
2018-02-04T07:51:04.103Z,-0.40
2018-02-04T07:53:30.317Z,-0.50
2018-02-04T07:55:57.305Z,-0.50
2018-02-04T07:58:23.523Z,-0.40
2018-02-04T08:00:49.791Z,-0.50
2018-02-04T08:03:16.023Z,-0.50
2018-02-04T08:05:42.276Z,-0.40
2018-02-04T08:08:09.231Z,-0.30
2018-02-04T08:10:35.477Z,-0.30
2018-02-04T08:13:02.913Z,-0.30
2018-02-04T08:15:29.407Z,-0.20
2018-02-04T08:17:55.623Z,-0.10
2018-02-04T08:20:22.692Z,-0.10
2018-02-04T08:22:49.043Z,-0.10
2018-02-04T08:25:16.037Z,0.00
2018-02-04T08:27:42.248Z,-0.10
2018-02-04T08:30:08.500Z,-0.10
2018-02-04T08:32:34.711Z,0.00
2018-02-04T08:35:00.961Z,0.00
2018-02-04T08:37:27.938Z,0.10
2018-02-04T08:39:55.024Z,0.10
2018-02-04T08:42:21.319Z,0.10
2018-02-04T08:44:48.311Z,0.20
2018-02-04T08:47:14.623Z,0.20
2018-02-04T08:49:40.880Z,0.30
2018-02-04T08:52:07.084Z,0.30
2018-02-04T08:54:33.334Z,0.40
2018-02-04T08:56:59.607Z,0.40
2018-02-04T08:59:25.859Z,0.40
2018-02-04T09:01:52.059Z,0.40
2018-02-04T09:04:18.299Z,0.20
2018-02-04T09:06:45.275Z,0.30
2018-02-04T09:09:11.528Z,0.30
2018-02-04T09:11:37.740Z,0.40
2018-02-04T09:14:03.967Z,0.50
2018-02-04T09:16:30.256Z,0.70
2018-02-04T09:18:57.299Z,0.90
2018-02-04T09:21:23.515Z,0.90
2018-02-04T09:23:49.782Z,0.90
2018-02-04T09:26:16.003Z,0.90
2018-02-04T09:28:42.957Z,0.70
2018-02-04T09:31:09.191Z,0.70
2018-02-04T09:33:35.408Z,0.70
2018-02-04T09:36:02.372Z,0.80
2018-02-04T09:38:28.608Z,0.70
2018-02-04T09:40:54.836Z,0.80
2018-02-04T09:43:21.040Z,0.70
2018-02-04T09:45:48.012Z,0.80
2018-02-04T09:48:14.248Z,0.80
2018-02-04T09:50:40.487Z,0.90
2018-02-04T09:53:06.721Z,1.00
2018-02-04T09:55:33.030Z,1.10
2018-02-04T09:57:59.943Z,1.20
2018-02-04T10:00:26.896Z,1.40
2018-02-04T10:02:53.091Z,1.40
2018-02-04T10:05:19.324Z,1.50
2018-02-04T10:07:46.303Z,1.70
2018-02-04T10:10:12.528Z,1.70
2018-02-04T10:12:38.730Z,1.80
2018-02-04T10:15:05.771Z,1.90
2018-02-04T10:17:32.111Z,1.90
2018-02-04T10:19:59.123Z,2.00
2018-02-04T10:22:25.348Z,2.00
2018-02-04T10:24:51.579Z,2.40
2018-02-04T10:27:17.835Z,2.50
2018-02-04T10:29:44.063Z,2.30
2018-02-04T10:32:10.267Z,2.20
2018-02-04T10:34:36.495Z,2.10
2018-02-04T10:37:02.712Z,1.90
2018-02-04T10:39:29.666Z,1.80
2018-02-04T10:41:56.643Z,1.70
2018-02-04T10:44:22.861Z,1.70
2018-02-04T10:46:49.076Z,1.90
2018-02-04T10:49:16.035Z,2.30
2018-02-04T10:51:48.296Z,2.30
2018-02-04T10:54:14.509Z,2.40
2018-02-04T10:56:40.775Z,2.60
2018-02-04T10:59:07.751Z,2.80
2018-02-04T11:01:33.987Z,2.80
2018-02-04T11:04:00.180Z,2.80
2018-02-04T11:06:27.155Z,2.70
2018-02-04T11:08:53.367Z,2.70
2018-02-04T11:11:19.592Z,2.70
2018-02-04T11:13:45.800Z,2.70
2018-02-04T11:16:12.020Z,2.80
2018-02-04T11:18:38.288Z,2.70
2018-02-04T11:21:05.252Z,2.60
2018-02-04T11:23:31.463Z,2.60
2018-02-04T11:25:57.692Z,2.50
2018-02-04T11:28:23.891Z,2.70
2018-02-04T11:30:51.083Z,2.60
2018-02-04T11:33:17.301Z,2.50
2018-02-04T11:35:43.529Z,2.50
2018-02-04T11:38:09.724Z,2.70
2018-02-04T11:40:36.751Z,2.70
2018-02-04T11:43:02.963Z,2.80
2018-02-04T11:45:29.215Z,2.70
2018-02-04T11:47:55.424Z,2.90
2018-02-04T11:50:21.659Z,3.00
2018-02-04T11:52:47.920Z,3.00
2018-02-04T11:55:14.899Z,3.30
2018-02-04T11:57:41.122Z,3.20
2018-02-04T12:00:07.376Z,3.40
2018-02-04T12:02:33.597Z,3.40
2018-02-04T12:04:59.817Z,3.30
2018-02-04T12:07:26.068Z,3.20
2018-02-04T12:09:52.300Z,3.30
2018-02-04T12:12:19.260Z,3.30
2018-02-04T12:14:45.499Z,3.30
2018-02-04T12:17:11.796Z,3.50
2018-02-04T12:19:38.081Z,3.50
2018-02-04T12:22:04.299Z,3.60
2018-02-04T12:24:31.260Z,3.70
2018-02-04T12:26:57.491Z,3.70
2018-02-04T12:29:23.766Z,3.90
2018-02-04T12:31:49.971Z,3.90
2018-02-04T12:34:16.221Z,3.90
2018-02-04T12:36:42.426Z,3.90
2018-02-04T12:39:08.648Z,3.70
2018-02-04T12:41:34.852Z,3.50
2018-02-04T12:44:01.108Z,3.40
2018-02-04T12:46:27.365Z,3.00
2018-02-04T12:48:53.603Z,3.00
2018-02-04T12:51:19.820Z,2.90
2018-02-04T12:53:46.051Z,2.90
2018-02-04T12:56:12.548Z,2.80
2018-02-04T12:58:38.823Z,2.50
2018-02-04T13:01:05.043Z,2.40
2018-02-04T13:03:31.659Z,2.40
2018-02-04T13:05:57.880Z,2.30
2018-02-04T13:08:24.196Z,2.30
2018-02-04T13:10:50.652Z,2.30
2018-02-04T13:13:16.875Z,2.40
2018-02-04T13:15:43.115Z,2.30
2018-02-04T13:18:09.528Z,2.30
2018-02-04T13:20:35.882Z,2.10
2018-02-04T13:23:02.152Z,2.10
2018-02-04T13:25:29.348Z,2.00
2018-02-04T13:27:55.547Z,1.90
2018-02-04T13:30:21.848Z,2.00
2018-02-04T13:32:48.240Z,2.00
2018-02-04T13:35:14.516Z,2.00
2018-02-04T13:37:41.117Z,2.00
2018-02-04T13:40:07.483Z,2.00
2018-02-04T13:42:33.736Z,2.20
2018-02-04T13:45:00.192Z,2.10
2018-02-04T13:47:26.375Z,2.30
2018-02-04T13:49:52.587Z,2.20
2018-02-04T13:52:19.004Z,2.10
2018-02-04T13:54:45.209Z,2.10
2018-02-04T13:57:12.483Z,2.00
2018-02-04T13:59:38.998Z,2.10
2018-02-04T14:02:05.251Z,2.20
2018-02-04T14:04:31.463Z,2.30
2018-02-04T14:06:57.896Z,2.30
2018-02-04T14:09:24.092Z,2.30
2018-02-04T14:11:50.387Z,2.10
2018-02-04T14:14:16.931Z,2.10
2018-02-04T14:16:43.897Z,2.20
2018-02-04T14:19:10.135Z,2.20
2018-02-04T14:21:36.504Z,2.10
2018-02-04T14:24:02.739Z,2.10
2018-02-04T14:26:28.960Z,2.10
2018-02-04T14:28:55.399Z,2.10
2018-02-04T14:31:21.628Z,1.90
2018-02-04T14:33:47.923Z,2.00
2018-02-04T14:36:14.316Z,1.90
2018-02-04T14:38:40.827Z,1.90
2018-02-04T14:41:08.579Z,1.90
2018-02-04T14:43:34.996Z,1.90
2018-02-04T14:46:01.339Z,2.00
2018-02-04T14:48:27.672Z,2.00
2018-02-04T14:50:54.299Z,1.90
2018-02-04T14:53:20.628Z,1.80
2018-02-04T14:55:46.860Z,1.90
2018-02-04T14:58:13.295Z,1.90
2018-02-04T15:00:39.541Z,1.90
2018-02-04T15:03:05.751Z,1.90
2018-02-04T15:05:32.227Z,1.70
2018-02-04T15:07:58.428Z,1.80
2018-02-04T15:10:24.640Z,1.80
2018-02-04T15:12:51.171Z,1.70
2018-02-04T15:15:17.382Z,1.70
2018-02-04T15:17:43.644Z,1.60
2018-02-04T15:20:10.478Z,1.60
2018-02-04T15:22:36.689Z,1.70
2018-02-04T15:25:02.903Z,1.70
2018-02-04T15:27:29.664Z,1.60
2018-02-04T15:29:55.868Z,1.70
2018-02-04T15:32:22.067Z,1.80
2018-02-04T15:34:48.551Z,1.80
2018-02-04T15:37:14.803Z,1.70
2018-02-04T15:39:42.139Z,1.60
2018-02-04T15:42:08.600Z,1.60
2018-02-04T15:44:34.823Z,1.70
2018-02-04T15:47:01.026Z,1.60
2018-02-04T15:49:27.455Z,1.60
2018-02-04T15:51:53.651Z,1.50
2018-02-04T15:54:20.592Z,1.50
2018-02-04T15:56:47.556Z,1.60
2018-02-04T15:59:13.831Z,1.50
2018-02-04T16:01:40.028Z,1.50
2018-02-04T16:04:06.237Z,1.50
2018-02-04T16:06:32.548Z,1.40
2018-02-04T16:08:59.983Z,1.40
2018-02-04T16:11:26.207Z,1.30
2018-02-04T16:13:52.407Z,1.30
2018-02-04T16:16:18.650Z,1.30
2018-02-04T16:18:44.927Z,1.40
2018-02-04T16:21:11.884Z,1.30
2018-02-04T16:23:38.072Z,1.30
2018-02-04T16:26:04.295Z,1.30
2018-02-04T16:28:30.519Z,1.30
2018-02-04T16:30:56.759Z,1.30
2018-02-04T16:33:23.203Z,1.30
2018-02-04T16:35:49.577Z,1.40
2018-02-04T16:38:15.843Z,1.30
2018-02-04T16:40:42.071Z,1.30
2018-02-04T16:43:08.301Z,1.20
2018-02-04T16:45:34.609Z,1.20
2018-02-04T16:48:00.816Z,1.20
2018-02-04T16:50:27.404Z,1.20
2018-02-04T16:52:53.672Z,1.20
2018-02-04T16:55:19.944Z,1.20
2018-02-04T16:57:46.868Z,1.40
2018-02-04T17:00:13.107Z,1.40
2018-02-04T17:02:39.355Z,1.50
2018-02-04T17:05:07.758Z,1.50
2018-02-04T17:07:36.688Z,1.50
2018-02-04T17:10:05.193Z,1.50
2018-02-04T17:12:35.909Z,1.60
2018-02-04T17:15:07.815Z,1.70
2018-02-04T17:17:36.477Z,1.60
2018-02-04T17:20:07.458Z,1.60
2018-02-04T17:22:35.177Z,1.60
2018-02-04T17:25:02.861Z,1.70
2018-02-04T17:27:31.100Z,1.70
2018-02-04T17:29:59.247Z,1.70
2018-02-04T17:32:27.912Z,1.80
2018-02-04T17:34:56.635Z,1.80
2018-02-04T17:37:24.380Z,1.80
2018-02-04T17:39:53.121Z,1.90
2018-02-04T17:42:22.533Z,2.00
2018-02-04T17:44:51.494Z,2.00
2018-02-04T17:47:20.253Z,2.10
2018-02-04T17:49:49.378Z,2.10
2018-02-04T17:52:20.290Z,2.00
2018-02-04T17:54:48.405Z,2.00
2018-02-04T17:57:17.142Z,1.90
2018-02-04T17:59:45.131Z,2.00
2018-02-04T18:02:13.202Z,2.00
2018-02-04T18:04:42.357Z,2.00
2018-02-04T18:07:10.613Z,1.90
2018-02-04T18:09:38.560Z,1.90
2018-02-04T18:12:07.430Z,1.90
2018-02-04T18:14:37.520Z,2.00
2018-02-04T18:17:05.632Z,2.00
2018-02-04T18:19:34.200Z,1.90
2018-02-04T18:22:02.075Z,1.90
2018-02-04T18:24:29.739Z,1.90
2018-02-04T18:26:58.175Z,1.90
2018-02-04T18:29:26.957Z,1.70
2018-02-04T18:31:55.926Z,1.70
2018-02-04T18:34:23.798Z,1.70
2018-02-04T18:36:51.477Z,1.60
2018-02-04T18:39:19.178Z,1.60
2018-02-04T18:41:47.042Z,1.60
2018-02-04T18:44:16.448Z,1.50
2018-02-04T18:46:45.084Z,1.50
2018-02-04T18:49:13.180Z,1.60
2018-02-04T18:51:41.346Z,1.70
2018-02-04T18:54:08.433Z,1.60
2018-02-04T18:56:35.791Z,1.60
2018-02-04T18:59:03.523Z,1.60
2018-02-04T19:01:30.960Z,1.60
2018-02-04T19:04:00.803Z,1.60
2018-02-04T19:06:28.855Z,1.60
2018-02-04T19:08:57.524Z,1.70
2018-02-04T19:11:26.700Z,1.70
2018-02-04T19:13:53.647Z,1.70
2018-02-04T19:16:21.199Z,1.70
2018-02-04T19:18:49.457Z,1.60
2018-02-04T19:21:16.997Z,1.60
2018-02-04T19:23:43.639Z,1.60
2018-02-04T19:26:12.972Z,1.70
2018-02-04T19:28:42.669Z,1.80
2018-02-04T19:31:13.200Z,1.80
2018-02-04T19:33:41.705Z,1.80
2018-02-04T19:36:12.160Z,1.90
2018-02-04T19:38:40.816Z,1.90
2018-02-04T19:41:08.281Z,1.90
2018-02-04T19:43:36.593Z,1.80
2018-02-04T19:46:04.611Z,1.80
2018-02-04T19:48:32.561Z,1.70
2018-02-04T19:51:00.608Z,1.70
2018-02-04T19:53:29.039Z,1.70
2018-02-04T19:55:58.180Z,1.70
2018-02-04T19:58:25.998Z,1.80
2018-02-04T20:00:54.887Z,1.80
2018-02-04T20:03:23.851Z,1.80
2018-02-04T20:05:52.993Z,1.80
2018-02-04T20:08:21.780Z,1.80
2018-02-04T20:10:49.938Z,1.80
2018-02-04T20:13:18.531Z,1.90
2018-02-04T20:15:46.774Z,1.80
2018-02-04T20:18:15.446Z,1.90
2018-02-04T20:20:45.768Z,1.90
2018-02-04T20:23:14.822Z,1.90
2018-02-04T20:25:42.688Z,1.90
2018-02-04T20:28:09.848Z,2.00
2018-02-04T20:30:37.893Z,2.10
2018-02-04T20:33:18.975Z,2.10
2018-02-04T20:35:47.600Z,2.10
2018-02-04T20:38:16.296Z,2.10
2018-02-04T20:43:37.718Z,2.00
2018-02-04T20:46:05.867Z,2.00
2018-02-04T20:48:34.260Z,2.00
2018-02-04T20:51:02.707Z,2.10
2018-02-04T20:53:34.239Z,2.10
2018-02-04T20:56:03.649Z,2.20
2018-02-04T20:58:32.350Z,2.20
2018-02-04T21:01:00.490Z,2.20
2018-02-04T21:03:28.885Z,2.20
2018-02-04T21:05:59.289Z,2.30
2018-02-04T21:08:27.971Z,2.30
2018-02-04T21:10:56.284Z,2.30
2018-02-04T21:13:26.340Z,2.30
2018-02-04T21:15:54.542Z,2.30
2018-02-04T21:18:22.580Z,2.20
2018-02-04T21:20:51.243Z,2.20
2018-02-04T21:23:19.635Z,2.20
2018-02-04T21:25:47.392Z,2.20
2018-02-04T21:28:15.274Z,2.20
2018-02-04T21:30:43.942Z,2.30
2018-02-04T21:33:12.887Z,2.30
2018-02-04T21:35:40.515Z,2.30
2018-02-04T21:38:08.039Z,2.20
2018-02-04T21:40:36.188Z,2.30
2018-02-04T21:43:04.225Z,2.40
2018-02-04T21:45:32.818Z,2.30
2018-02-04T21:48:01.590Z,2.40
2018-02-04T21:50:29.304Z,2.40
2018-02-04T21:52:56.865Z,2.50
2018-02-04T21:55:25.060Z,2.50
2018-02-04T21:57:53.088Z,2.30
2018-02-04T22:00:21.986Z,2.30
2018-02-04T22:02:50.004Z,2.30
2018-02-04T22:05:18.212Z,2.20
2018-02-04T22:07:46.218Z,2.20
2018-02-04T22:10:16.555Z,2.30
2018-02-04T22:12:46.615Z,2.30
2018-02-04T22:15:14.657Z,2.20
2018-02-04T22:17:43.084Z,2.20
2018-02-04T22:20:10.851Z,2.20
2018-02-04T22:22:39.489Z,2.20
2018-02-04T22:25:07.705Z,2.20
2018-02-04T22:27:35.695Z,2.10
2018-02-04T22:30:02.773Z,2.20
2018-02-04T22:32:30.660Z,2.10
2018-02-04T22:34:58.662Z,2.10
2018-02-04T22:37:27.760Z,2.00
2018-02-04T22:39:57.280Z,2.10
2018-02-04T22:42:26.227Z,2.00
2018-02-04T22:44:54.724Z,2.10
2018-02-04T22:47:24.031Z,2.10
2018-02-04T22:49:51.533Z,2.00
2018-02-04T22:52:20.064Z,1.90
2018-02-04T22:54:48.184Z,1.90
2018-02-04T22:57:17.222Z,1.90
2018-02-04T22:59:45.669Z,1.80
2018-02-04T23:02:13.770Z,1.80
2018-02-04T23:04:41.716Z,1.80
2018-02-04T23:07:10.094Z,1.80
2018-02-04T23:09:37.318Z,1.80
2018-02-04T23:12:05.731Z,1.80
2018-02-04T23:14:35.289Z,1.80
2018-02-04T23:17:03.222Z,1.90
2018-02-04T23:19:31.701Z,1.90
2018-02-04T23:22:00.294Z,1.90
2018-02-04T23:24:29.021Z,1.90
2018-02-04T23:26:57.016Z,1.90
2018-02-04T23:29:25.394Z,1.90
2018-02-04T23:31:53.496Z,1.90
2018-02-04T23:34:21.201Z,2.00
2018-02-04T23:36:49.354Z,2.00
2018-02-04T23:39:17.429Z,1.90
2018-02-04T23:41:45.564Z,2.00
2018-02-04T23:44:13.996Z,1.90
2018-02-04T23:46:41.928Z,1.90
2018-02-04T23:49:09.991Z,1.90
2018-02-04T23:51:38.851Z,1.90
2018-02-04T23:54:08.182Z,1.90
2018-02-04T23:56:37.119Z,1.80
2018-02-04T23:59:05.519Z,1.80
